Hartford, Kansas
Current Conditions -  °F | °C
As of 7:53 PM on Sunday 25 Jan 2015 (Local Time) from KEMP Reporting Station
Few Clouds Few Clouds  
Wind Chill: 27°   Ceiling: Unl
Heat Index: 34°   Visibility: 10mi
Dew Point: 28°   Wind: 8mph
Humidity: 79%   Direction: 340°NNW
Pressure: 30.12"   Gusts: NA
Location:  38.31°N, 95.96°W
Report Text: KEMP 260153Z AUTO 34007KT 10SM FEW032 01/M02 A3012 RMK AO2 SLP210 T00111022
Loading
Personal Weather Stations






























Interactive Weather Map New forecast layout! Learn more

10-Day Weather Forecast

Advertisements
Track Severe Weather on mobile